sensor_id;sensor_type;location;lat;lon;timestamp;pressure;altitude;pressure_sealevel;temperature;humidity
24306;BME280;12423;48.768;8.850;2022-12-24T00:00:13;96478.09;;;10.34;100.00
24306;BME280;12423;48.768;8.850;2022-12-24T00:02:14;96461.09;;;10.35;100.00
24306;BME280;12423;48.768;8.850;2022-12-24T00:04:15;96468.44;;;10.33;100.00
24306;BME280;12423;48.768;8.850;2022-12-24T00:06:18;96464.28;;;10.48;100.00
24306;BME280;12423;48.768;8.850;2022-12-24T00:08:20;96475.84;;;10.39;100.00
24306;BME280;12423;48.768;8.850;2022-12-24T00:10:21;96482.19;;;10.19;100.00
24306;BME280;12423;48.768;8.850;2022-12-24T00:12:22;96469.94;;;10.26;100.00
24306;BME280;12423;48.768;8.850;2022-12-24T00:14:24;96477.78;;;10.47;100.00
24306;BME280;12423;48.768;8.850;2022-12-24T00:16:25;96486.50;;;10.39;100.00
24306;BME280;12423;48.768;8.850;2022-12-24T00:18:26;96480.63;;;10.36;100.00
24306;BME280;12423;48.768;8.850;2022-12-24T00:20:27;96485.25;;;10.24;100.00
24306;BME280;12423;48.768;8.850;2022-12-24T00:22:28;96470.38;;;10.21;100.00
24306;BME280;12423;48.768;8.850;2022-12-24T00:24:29;96468.72;;;10.10;100.00
24306;BME280;12423;48.768;8.850;2022-12-24T00:26:31;96479.09;;;10.13;100.00
24306;BME280;12423;48.768;8.850;2022-12-24T00:28:33;96481.22;;;10.20;100.00
24306;BME280;12423;48.768;8.850;2022-12-24T00:30:34;96474.00;;;10.30;100.00
24306;BME280;12423;48.768;8.850;2022-12-24T00:32:35;96476.09;;;10.46;100.00
24306;BME280;12423;48.768;8.850;2022-12-24T00:34:38;96469.94;;;10.36;100.00
24306;BME280;12423;48.768;8.850;2022-12-24T00:36:39;96473.91;;;10.22;100.00
24306;BME280;12423;48.768;8.850;2022-12-24T00:38:40;96464.06;;;10.22;100.00
24306;BME280;12423;48.768;8.850;2022-12-24T00:40:41;96477.66;;;10.29;100.00
24306;BME280;12423;48.768;8.850;2022-12-24T00:42:42;96470.34;;;10.31;100.00
24306;BME280;12423;48.768;8.850;2022-12-24T00:44:44;96461.94;;;10.26;100.00
24306;BME280;12423;48.768;8.850;2022-12-24T00:46:45;96478.41;;;10.11;100.00
24306;BME280;12423;48.768;8.850;2022-12-24T00:48:46;96484.44;;;10.13;100.00
24306;BME280;12423;48.768;8.850;2022-12-24T00:50:48;96486.22;;;10.23;100.00
24306;BME280;12423;48.768;8.850;2022-12-24T00:52:49;96495.78;;;10.25;100.00
24306;BME280;12423;48.768;8.850;2022-12-24T00:54:50;96493.00;;;10.17;100.00
24306;BME280;12423;48.768;8.850;2022-12-24T00:56:51;96499.78;;;9.92;100.00
24306;BME280;12423;48.768;8.850;2022-12-24T00:58:52;96500.59;;;9.83;100.00
24306;BME280;12423;48.768;8.850;2022-12-24T01:00:53;96498.50;;;9.76;100.00
24306;BME280;12423;48.768;8.850;2022-12-24T01:02:54;96499.22;;;9.69;100.00
24306;BME280;12423;48.768;8.850;2022-12-24T01:04:55;96505.09;;;9.72;100.00
24306;BME280;12423;48.768;8.850;2022-12-24T01:07:11;96516.34;;;9.76;100.00
24306;BME280;12423;48.768;8.850;2022-12-24T01:09:12;96514.22;;;9.70;100.00
24306;BME280;12423;48.768;8.850;2022-12-24T01:11:13;96521.09;;;9.72;100.00
24306;BME280;12423;48.768;8.850;2022-12-24T01:13:14;96526.31;;;9.84;100.00
24306;BME280;12423;48.768;8.850;2022-12-24T01:15:15;96530.94;;;9.91;100.00
24306;BME280;12423;48.768;8.850;2022-12-24T01:17:16;96535.72;;;9.88;100.00
24306;BME280;12423;48.768;8.850;2022-12-24T01:19:17;96539.66;;;9.84;100.00
24306;BME280;12423;48.768;8.850;2022-12-24T01:21:18;96546.94;;;9.91;100.00
24306;BME280;12423;48.768;8.850;2022-12-24T01:23:19;96563.25;;;9.88;100.00
24306;BME280;12423;48.768;8.850;2022-12-24T01:25:20;96556.47;;;9.74;100.00
24306;BME280;12423;48.768;8.850;2022-12-24T01:27:21;96573.03;;;9.78;100.00
24306;BME280;12423;48.768;8.850;2022-12-24T01:29:22;96573.03;;;9.78;100.00
24306;BME280;12423;48.768;8.850;2022-12-24T01:31:23;96568.28;;;9.82;100.00
24306;BME280;12423;48.768;8.850;2022-12-24T01:33:27;96565.19;;;9.76;100.00
24306;BME280;12423;48.768;8.850;2022-12-24T01:35:28;96586.13;;;9.91;100.00
24306;BME280;12423;48.768;8.850;2022-12-24T01:37:29;96592.75;;;9.96;100.00
24306;BME280;12423;48.768;8.850;2022-12-24T01:39:30;96583.44;;;9.91;100.00
24306;BME280;12423;48.768;8.850;2022-12-24T01:41:31;96584.59;;;9.88;100.00
24306;BME280;12423;48.768;8.850;2022-12-24T01:43:51;96589.63;;;9.82;100.00
24306;BME280;12423;48.768;8.850;2022-12-24T01:45:58;96586.81;;;9.73;100.00
24306;BME280;12423;48.768;8.850;2022-12-24T01:47:59;96608.16;;;9.73;100.00
24306;BME280;12423;48.768;8.850;2022-12-24T01:50:12;96608.00;;;9.75;100.00
24306;BME280;12423;48.768;8.850;2022-12-24T01:52:20;96615.03;;;9.76;100.00
24306;BME280;12423;48.768;8.850;2022-12-24T01:54:29;96609.25;;;9.71;100.00
24306;BME280;12423;48.768;8.850;2022-12-24T01:56:35;96620.63;;;9.73;100.00
24306;BME280;12423;48.768;8.850;2022-12-24T01:58:38;96617.81;;;9.74;100.00
24306;BME280;12423;48.768;8.850;2022-12-24T02:00:40;96629.75;;;9.70;100.00
24306;BME280;12423;48.768;8.850;2022-12-24T02:02:45;96631.69;;;9.68;100.00
24306;BME280;12423;48.768;8.850;2022-12-24T02:04:59;96625.53;;;9.68;100.00
24306;BME280;12423;48.768;8.850;2022-12-24T02:07:01;96628.19;;;9.68;100.00
24306;BME280;12423;48.768;8.850;2022-12-24T02:09:02;96638.56;;;9.61;100.00
24306;BME280;12423;48.768;8.850;2022-12-24T02:11:08;96622.94;;;9.47;100.00
24306;BME280;12423;48.768;8.850;2022-12-24T02:13:09;96624.91;;;9.45;100.00
24306;BME280;12423;48.768;8.850;2022-12-24T02:15:13;96634.38;;;9.28;100.00
24306;BME280;12423;48.768;8.850;2022-12-24T02:17:46;96655.41;;;9.21;100.00
24306;BME280;12423;48.768;8.850;2022-12-24T02:22:16;96656.03;;;9.34;100.00
24306;BME280;12423;48.768;8.850;2022-12-24T02:27:05;96669.44;;;9.23;100.00
24306;BME280;12423;48.768;8.850;2022-12-24T02:31:25;96640.63;;;9.17;100.00
24306;BME280;12423;48.768;8.850;2022-12-24T02:36:17;96636.06;;;9.69;100.00
24306;BME280;12423;48.768;8.850;2022-12-24T02:38:31;96635.63;;;9.64;100.00
24306;BME280;12423;48.768;8.850;2022-12-24T02:40:38;96645.91;;;9.69;100.00
24306;BME280;12423;48.768;8.850;2022-12-24T02:42:43;96644.91;;;9.70;100.00
24306;BME280;12423;48.768;8.850;2022-12-24T02:45:01;96636.63;;;9.73;100.00
24306;BME280;12423;48.768;8.850;2022-12-24T02:47:04;96651.38;;;9.67;100.00
24306;BME280;12423;48.768;8.850;2022-12-24T02:49:06;96658.34;;;9.58;100.00
24306;BME280;12423;48.768;8.850;2022-12-24T02:51:08;96659.91;;;9.61;100.00
24306;BME280;12423;48.768;8.850;2022-12-24T02:53:09;96655.00;;;9.66;100.00
24306;BME280;12423;48.768;8.850;2022-12-24T02:57:50;96657.22;;;9.61;100.00
24306;BME280;12423;48.768;8.850;2022-12-24T03:02:24;96664.53;;;9.59;100.00
24306;BME280;12423;48.768;8.850;2022-12-24T03:11:24;96670.13;;;9.56;100.00
24306;BME280;12423;48.768;8.850;2022-12-24T03:13:26;96656.53;;;9.59;100.00
24306;BME280;12423;48.768;8.850;2022-12-24T03:15:28;96656.69;;;9.67;100.00
24306;BME280;12423;48.768;8.850;2022-12-24T03:17:33;96658.38;;;9.68;100.00
24306;BME280;12423;48.768;8.850;2022-12-24T03:19:38;96679.00;;;9.66;100.00
24306;BME280;12423;48.768;8.850;2022-12-24T03:21:40;96689.50;;;9.58;100.00
24306;BME280;12423;48.768;8.850;2022-12-24T03:23:42;96694.25;;;9.54;100.00
24306;BME280;12423;48.768;8.850;2022-12-24T03:25:44;96686.66;;;9.50;100.00
24306;BME280;12423;48.768;8.850;2022-12-24T03:27:45;96676.53;;;9.44;100.00
24306;BME280;12423;48.768;8.850;2022-12-24T03:29:46;96685.59;;;9.31;100.00
24306;BME280;12423;48.768;8.850;2022-12-24T03:31:50;96687.31;;;9.32;100.00
24306;BME280;12423;48.768;8.850;2022-12-24T03:33:51;96685.06;;;9.37;100.00
24306;BME280;12423;48.768;8.850;2022-12-24T03:35:52;96680.97;;;9.33;100.00
24306;BME280;12423;48.768;8.850;2022-12-24T03:37:53;96699.19;;;9.28;100.00
24306;BME280;12423;48.768;8.850;2022-12-24T03:39:54;96704.78;;;9.25;100.00
24306;BME280;12423;48.768;8.850;2022-12-24T03:41:55;96705.22;;;9.30;100.00
24306;BME280;12423;48.768;8.850;2022-12-24T03:43:56;96709.59;;;9.31;100.00
24306;BME280;12423;48.768;8.850;2022-12-24T03:45:57;96716.34;;;9.35;100.00
24306;BME280;12423;48.768;8.850;2022-12-24T03:48:02;96718.56;;;9.30;100.00
24306;BME280;12423;48.768;8.850;2022-12-24T03:50:05;96717.41;;;9.23;100.00
24306;BME280;12423;48.768;8.850;2022-12-24T03:52:06;96716.44;;;9.24;100.00
24306;BME280;12423;48.768;8.850;2022-12-24T03:54:07;96710.09;;;9.25;100.00
24306;BME280;12423;48.768;8.850;2022-12-24T03:56:08;96705.34;;;9.19;100.00
24306;BME280;12423;48.768;8.850;2022-12-24T03:58:09;96713.16;;;9.20;100.00
24306;BME280;12423;48.768;8.850;2022-12-24T04:00:10;96714.22;;;9.08;100.00
24306;BME280;12423;48.768;8.850;2022-12-24T04:02:14;96704.94;;;9.02;100.00
24306;BME280;12423;48.768;8.850;2022-12-24T04:04:15;96707.31;;;9.06;100.00
24306;BME280;12423;48.768;8.850;2022-12-24T04:06:16;96718.28;;;9.02;100.00
24306;BME280;12423;48.768;8.850;2022-12-24T04:08:17;96724.38;;;8.93;100.00
24306;BME280;12423;48.768;8.850;2022-12-24T04:10:18;96721.38;;;8.87;100.00
24306;BME280;12423;48.768;8.850;2022-12-24T04:12:19;96719.41;;;8.89;100.00
24306;BME280;12423;48.768;8.850;2022-12-24T04:14:20;96715.41;;;8.94;100.00
24306;BME280;12423;48.768;8.850;2022-12-24T04:16:21;96717.41;;;9.02;100.00
24306;BME280;12423;48.768;8.850;2022-12-24T04:18:22;96719.25;;;9.01;100.00
24306;BME280;12423;48.768;8.850;2022-12-24T04:20:23;96734.25;;;9.02;100.00
24306;BME280;12423;48.768;8.850;2022-12-24T04:22:24;96737.25;;;9.09;100.00
24306;BME280;12423;48.768;8.850;2022-12-24T04:24:25;96723.81;;;9.20;100.00
24306;BME280;12423;48.768;8.850;2022-12-24T04:26:26;96721.03;;;9.22;100.00
24306;BME280;12423;48.768;8.850;2022-12-24T04:28:28;96713.16;;;9.20;100.00
24306;BME280;12423;48.768;8.850;2022-12-24T04:30:29;96713.91;;;9.22;100.00
24306;BME280;12423;48.768;8.850;2022-12-24T04:32:30;96721.31;;;9.19;100.00
24306;BME280;12423;48.768;8.850;2022-12-24T04:34:31;96727.47;;;9.19;100.00
24306;BME280;12423;48.768;8.850;2022-12-24T04:36:32;96726.91;;;9.16;100.00
24306;BME280;12423;48.768;8.850;2022-12-24T04:38:34;96731.25;;;9.17;100.00
24306;BME280;12423;48.768;8.850;2022-12-24T04:40:35;96741.00;;;9.07;100.00
24306;BME280;12423;48.768;8.850;2022-12-24T04:42:36;96754.56;;;9.03;100.00
24306;BME280;12423;48.768;8.850;2022-12-24T04:44:37;96748.66;;;9.00;100.00
24306;BME280;12423;48.768;8.850;2022-12-24T04:46:38;96742.38;;;9.01;100.00
24306;BME280;12423;48.768;8.850;2022-12-24T04:48:39;96748.16;;;9.06;100.00
24306;BME280;12423;48.768;8.850;2022-12-24T04:50:40;96748.28;;;9.04;100.00
24306;BME280;12423;48.768;8.850;2022-12-24T04:52:41;96756.16;;;9.06;100.00
24306;BME280;12423;48.768;8.850;2022-12-24T04:54:42;96768.28;;;8.99;100.00
24306;BME280;12423;48.768;8.850;2022-12-24T04:56:43;96765.50;;;9.00;100.00
24306;BME280;12423;48.768;8.850;2022-12-24T04:58:44;96772.53;;;9.01;100.00
24306;BME280;12423;48.768;8.850;2022-12-24T05:00:45;96771.41;;;9.04;100.00
24306;BME280;12423;48.768;8.850;2022-12-24T05:02:46;96775.69;;;8.95;100.00
24306;BME280;12423;48.768;8.850;2022-12-24T05:04:47;96763.75;;;8.90;100.00
24306;BME280;12423;48.768;8.850;2022-12-24T05:06:48;96767.69;;;8.95;100.00
24306;BME280;12423;48.768;8.850;2022-12-24T05:08:49;96761.16;;;8.99;100.00
24306;BME280;12423;48.768;8.850;2022-12-24T05:10:57;96756.09;;;8.96;100.00
24306;BME280;12423;48.768;8.850;2022-12-24T05:12:58;96768.94;;;9.12;100.00
24306;BME280;12423;48.768;8.850;2022-12-24T05:14:59;96774.25;;;9.12;100.00
24306;BME280;12423;48.768;8.850;2022-12-24T05:17:00;96780.63;;;9.00;100.00
24306;BME280;12423;48.768;8.850;2022-12-24T05:19:01;96783.44;;;8.98;100.00
24306;BME280;12423;48.768;8.850;2022-12-24T05:21:06;96767.38;;;8.89;100.00
24306;BME280;12423;48.768;8.850;2022-12-24T05:23:09;96774.25;;;9.12;100.00
24306;BME280;12423;48.768;8.850;2022-12-24T05:25:37;96774.19;;;9.23;100.00
24306;BME280;12423;48.768;8.850;2022-12-24T05:27:57;96767.34;;;9.21;100.00
24306;BME280;12423;48.768;8.850;2022-12-24T05:29:58;96768.75;;;9.25;100.00
24306;BME280;12423;48.768;8.850;2022-12-24T05:31:59;96762.59;;;9.25;100.00
24306;BME280;12423;48.768;8.850;2022-12-24T05:34:00;96764.06;;;9.38;100.00
24306;BME280;12423;48.768;8.850;2022-12-24T05:36:03;96763.16;;;9.28;100.00
24306;BME280;12423;48.768;8.850;2022-12-24T05:38:03;96754.78;;;9.33;100.00
24306;BME280;12423;48.768;8.850;2022-12-24T05:40:05;96766.22;;;9.23;100.00
24306;BME280;12423;48.768;8.850;2022-12-24T05:42:06;96758.88;;;9.16;100.00
24306;BME280;12423;48.768;8.850;2022-12-24T05:44:07;96754.56;;;9.03;100.00
24306;BME280;12423;48.768;8.850;2022-12-24T05:46:14;96760.09;;;9.12;100.00
24306;BME280;12423;48.768;8.850;2022-12-24T05:48:15;96756.69;;;9.21;100.00
24306;BME280;12423;48.768;8.850;2022-12-24T05:50:17;96755.97;;;9.19;100.00
24306;BME280;12423;48.768;8.850;2022-12-24T05:52:17;96765.63;;;9.20;100.00
24306;BME280;12423;48.768;8.850;2022-12-24T05:54:18;96762.25;;;9.18;100.00
24306;BME280;12423;48.768;8.850;2022-12-24T05:56:22;96773.56;;;9.10;100.00
24306;BME280;12423;48.768;8.850;2022-12-24T05:58:23;96767.78;;;9.05;100.00
24306;BME280;12423;48.768;8.850;2022-12-24T06:00:24;96764.56;;;8.90;100.00
24306;BME280;12423;48.768;8.850;2022-12-24T06:02:25;96754.13;;;8.98;100.00
24306;BME280;12423;48.768;8.850;2022-12-24T06:04:26;96755.50;;;8.93;100.00
24306;BME280;12423;48.768;8.850;2022-12-24T06:06:27;96762.25;;;8.97;100.00
24306;BME280;12423;48.768;8.850;2022-12-24T06:08:29;96775.22;;;8.90;100.00
24306;BME280;12423;48.768;8.850;2022-12-24T06:10:30;96775.50;;;8.87;100.00
24306;BME280;12423;48.768;8.850;2022-12-24T06:12:31;96778.53;;;8.82;100.00
24306;BME280;12423;48.768;8.850;2022-12-24T06:14:32;96771.78;;;8.78;100.00
24306;BME280;12423;48.768;8.850;2022-12-24T06:16:33;96766.69;;;8.75;100.00
24306;BME280;12423;48.768;8.850;2022-12-24T06:18:35;96760.22;;;8.68;100.00
24306;BME280;12423;48.768;8.850;2022-12-24T06:20:36;96773.06;;;8.63;100.00
24306;BME280;12423;48.768;8.850;2022-12-24T06:22:37;96770.44;;;8.52;100.00
24306;BME280;12423;48.768;8.850;2022-12-24T06:24:38;96774.28;;;8.36;100.00
24306;BME280;12423;48.768;8.850;2022-12-24T06:26:39;96780.38;;;8.38;100.00
24306;BME280;12423;48.768;8.850;2022-12-24T06:28:40;96782.56;;;8.22;100.00
24306;BME280;12423;48.768;8.850;2022-12-24T06:30:45;96784.50;;;8.20;100.00
24306;BME280;12423;48.768;8.850;2022-12-24T06:32:46;96789.69;;;8.21;100.00
24306;BME280;12423;48.768;8.850;2022-12-24T06:34:47;96791.50;;;8.32;100.00
24306;BME280;12423;48.768;8.850;2022-12-24T06:36:48;96792.34;;;8.44;100.00
24306;BME280;12423;48.768;8.850;2022-12-24T06:38:51;96800.31;;;8.55;100.00
24306;BME280;12423;48.768;8.850;2022-12-24T06:40:53;96797.66;;;8.44;100.00
24306;BME280;12423;48.768;8.850;2022-12-24T06:42:55;96801.72;;;8.59;100.00
24306;BME280;12423;48.768;8.850;2022-12-24T06:44:56;96793.41;;;8.53;100.00
24306;BME280;12423;48.768;8.850;2022-12-24T06:46:57;96805.88;;;8.52;100.00
24306;BME280;12423;48.768;8.850;2022-12-24T06:48:59;96804.72;;;8.66;100.00
24306;BME280;12423;48.768;8.850;2022-12-24T06:51:01;96812.59;;;8.67;100.00
24306;BME280;12423;48.768;8.850;2022-12-24T06:53:03;96818.53;;;8.71;100.00
24306;BME280;12423;48.768;8.850;2022-12-24T06:55:04;96812.25;;;8.61;100.00
24306;BME280;12423;48.768;8.850;2022-12-24T06:57:05;96816.59;;;8.73;100.00
24306;BME280;12423;48.768;8.850;2022-12-24T06:59:07;96822.13;;;8.81;100.00
24306;BME280;12423;48.768;8.850;2022-12-24T07:01:10;96828.09;;;8.74;100.00
24306;BME280;12423;48.768;8.850;2022-12-24T07:03:11;96827.75;;;8.67;100.00
24306;BME280;12423;48.768;8.850;2022-12-24T07:05:13;96828.44;;;8.69;100.00
24306;BME280;12423;48.768;8.850;2022-12-24T07:07:14;96831.25;;;8.67;100.00
24306;BME280;12423;48.768;8.850;2022-12-24T07:09:15;96830.66;;;8.64;100.00
24306;BME280;12423;48.768;8.850;2022-12-24T07:11:16;96833.69;;;8.59;100.00
24306;BME280;12423;48.768;8.850;2022-12-24T07:13:17;96840.47;;;8.52;100.00
24306;BME280;12423;48.768;8.850;2022-12-24T07:15:19;96838.53;;;8.54;100.00
24306;BME280;12423;48.768;8.850;2022-12-24T07:17:20;96833.34;;;8.53;100.00
24306;BME280;12423;48.768;8.850;2022-12-24T07:19:21;96844.84;;;8.53;100.00
24306;BME280;12423;48.768;8.850;2022-12-24T07:21:22;96843.41;;;8.49;100.00
24306;BME280;12423;48.768;8.850;2022-12-24T07:23:23;96848.09;;;8.34;100.00
24306;BME280;12423;48.768;8.850;2022-12-24T07:25:24;96847.41;;;8.43;100.00
24306;BME280;12423;48.768;8.850;2022-12-24T07:27:25;96857.69;;;8.48;100.00
24306;BME280;12423;48.768;8.850;2022-12-24T07:29:26;96858.25;;;8.63;100.00
24306;BME280;12423;48.768;8.850;2022-12-24T07:31:27;96872.19;;;8.66;100.00
24306;BME280;12423;48.768;8.850;2022-12-24T07:33:28;96867.53;;;8.80;100.00
24306;BME280;12423;48.768;8.850;2022-12-24T07:35:29;96870.66;;;8.85;100.00
24306;BME280;12423;48.768;8.850;2022-12-24T07:37:30;96875.03;;;8.86;100.00
24306;BME280;12423;48.768;8.850;2022-12-24T07:39:31;96875.63;;;8.90;100.00
24306;BME280;12423;48.768;8.850;2022-12-24T07:41:32;96876.59;;;8.89;100.00
24306;BME280;12423;48.768;8.850;2022-12-24T07:43:34;96869.94;;;8.83;100.00
24306;BME280;12423;48.768;8.850;2022-12-24T07:45:35;96878.91;;;8.82;100.00
24306;BME280;12423;48.768;8.850;2022-12-24T07:47:36;96874.50;;;8.92;100.00
24306;BME280;12423;48.768;8.850;2022-12-24T07:49:37;96877.81;;;8.84;100.00
24306;BME280;12423;48.768;8.850;2022-12-24T07:51:38;96881.06;;;8.88;100.00
24306;BME280;12423;48.768;8.850;2022-12-24T07:53:39;96887.69;;;9.05;100.00
24306;BME280;12423;48.768;8.850;2022-12-24T07:55:47;96885.84;;;9.06;100.00
24306;BME280;12423;48.768;8.850;2022-12-24T07:57:48;96890.75;;;8.89;100.00
24306;BME280;12423;48.768;8.850;2022-12-24T07:59:48;96888.81;;;8.91;100.00
24306;BME280;12423;48.768;8.850;2022-12-24T08:01:49;96877.91;;;8.94;100.00
24306;BME280;12423;48.768;8.850;2022-12-24T08:03:50;96889.31;;;8.85;100.00
24306;BME280;12423;48.768;8.850;2022-12-24T08:05:54;96881.31;;;8.85;100.00
24306;BME280;12423;48.768;8.850;2022-12-24T08:07:55;96874.59;;;8.70;100.00
24306;BME280;12423;48.768;8.850;2022-12-24T08:09:55;96899.28;;;8.72;100.00
24306;BME280;12423;48.768;8.850;2022-12-24T08:11:56;96896.59;;;8.83;100.00
24306;BME280;12423;48.768;8.850;2022-12-24T08:13:57;96892.94;;;8.84;100.00
24306;BME280;12423;48.768;8.850;2022-12-24T08:15:58;96898.00;;;8.87;100.00
24306;BME280;12423;48.768;8.850;2022-12-24T08:17:59;96904.56;;;8.94;100.00
24306;BME280;12423;48.768;8.850;2022-12-24T08:20:01;96904.81;;;8.91;100.00
24306;BME280;12423;48.768;8.850;2022-12-24T08:22:02;96904.34;;;8.86;100.00
24306;BME280;12423;48.768;8.850;2022-12-24T08:24:03;96913.41;;;8.83;100.00
24306;BME280;12423;48.768;8.850;2022-12-24T08:26:08;96906.50;;;8.81;100.00
24306;BME280;12423;48.768;8.850;2022-12-24T08:28:10;96918.25;;;8.90;100.00
24306;BME280;12423;48.768;8.850;2022-12-24T08:30:12;96913.50;;;8.93;100.00
24306;BME280;12423;48.768;8.850;2022-12-24T08:32:13;96918.59;;;8.96;100.00
24306;BME280;12423;48.768;8.850;2022-12-24T08:34:14;96919.91;;;9.02;100.00
24306;BME280;12423;48.768;8.850;2022-12-24T08:36:15;96920.13;;;9.10;100.00
24306;BME280;12423;48.768;8.850;2022-12-24T08:38:16;96920.69;;;9.14;100.00
24306;BME280;12423;48.768;8.850;2022-12-24T08:40:17;96919.75;;;9.15;100.00
24306;BME280;12423;48.768;8.850;2022-12-24T08:42:18;96931.13;;;9.17;100.00
24306;BME280;12423;48.768;8.850;2022-12-24T08:44:19;96916.59;;;9.21;100.00
24306;BME280;12423;48.768;8.850;2022-12-24T08:46:20;96926.53;;;9.19;100.00
24306;BME280;12423;48.768;8.850;2022-12-24T08:48:21;96930.03;;;9.19;100.00
24306;BME280;12423;48.768;8.850;2022-12-24T08:50:22;96932.31;;;9.24;100.00
24306;BME280;12423;48.768;8.850;2022-12-24T08:52:23;96938.38;;;9.26;100.00
24306;BME280;12423;48.768;8.850;2022-12-24T08:54:24;96936.03;;;9.33;100.00
24306;BME280;12423;48.768;8.850;2022-12-24T08:56:25;96934.09;;;9.35;100.00
24306;BME280;12423;48.768;8.850;2022-12-24T08:58:26;96925.75;;;9.28;100.00
24306;BME280;12423;48.768;8.850;2022-12-24T09:00:27;96924.91;;;9.28;100.00
24306;BME280;12423;48.768;8.850;2022-12-24T09:02:28;96927.66;;;9.37;100.00
24306;BME280;12423;48.768;8.850;2022-12-24T09:04:30;96936.75;;;9.35;100.00
24306;BME280;12423;48.768;8.850;2022-12-24T09:06:31;96940.25;;;9.35;100.00
24306;BME280;12423;48.768;8.850;2022-12-24T09:08:33;96942.03;;;9.46;100.00
24306;BME280;12423;48.768;8.850;2022-12-24T09:10:34;96949.91;;;9.48;100.00
24306;BME280;12423;48.768;8.850;2022-12-24T09:12:35;96954.41;;;9.47;100.00
24306;BME280;12423;48.768;8.850;2022-12-24T09:14:36;96966.75;;;9.48;100.00
24306;BME280;12423;48.768;8.850;2022-12-24T09:16:37;96960.22;;;9.52;100.00
24306;BME280;12423;48.768;8.850;2022-12-24T09:18:38;96963.72;;;9.53;100.00
24306;BME280;12423;48.768;8.850;2022-12-24T09:20:39;96968.09;;;9.54;100.00
24306;BME280;12423;48.768;8.850;2022-12-24T09:22:40;96968.53;;;9.59;100.00
24306;BME280;12423;48.768;8.850;2022-12-24T09:24:41;96976.16;;;9.64;100.00
24306;BME280;12423;48.768;8.850;2022-12-24T09:26:42;96977.00;;;9.64;100.00
24306;BME280;12423;48.768;8.850;2022-12-24T09:28:43;96982.47;;;9.63;100.00
24306;BME280;12423;48.768;8.850;2022-12-24T09:30:54;96979.53;;;9.66;100.00
24306;BME280;12423;48.768;8.850;2022-12-24T09:32:55;96982.09;;;9.67;100.00
24306;BME280;12423;48.768;8.850;2022-12-24T09:34:56;96979.78;;;9.63;100.00
24306;BME280;12423;48.768;8.850;2022-12-24T09:36:57;96977.59;;;9.68;100.00
24306;BME280;12423;48.768;8.850;2022-12-24T09:39:00;96985.72;;;9.66;100.00
24306;BME280;12423;48.768;8.850;2022-12-24T09:41:10;96991.31;;;9.63;100.00
24306;BME280;12423;48.768;8.850;2022-12-24T09:43:20;96986.84;;;9.64;100.00
24306;BME280;12423;48.768;8.850;2022-12-24T09:45:30;96979.91;;;9.61;100.00
24306;BME280;12423;48.768;8.850;2022-12-24T09:47:42;96984.16;;;9.64;100.00
24306;BME280;12423;48.768;8.850;2022-12-24T09:49:49;96970.53;;;9.67;100.00
24306;BME280;12423;48.768;8.850;2022-12-24T09:51:58;96981.63;;;9.62;100.00
24306;BME280;12423;48.768;8.850;2022-12-24T09:54:04;96971.91;;;9.61;100.00
24306;BME280;12423;48.768;8.850;2022-12-24T09:56:11;96971.22;;;9.59;100.00
24306;BME280;12423;48.768;8.850;2022-12-24T09:58:29;96970.75;;;9.54;100.00
24306;BME280;12423;48.768;8.850;2022-12-24T10:00:36;96959.09;;;9.55;100.00
24306;BME280;12423;48.768;8.850;2022-12-24T10:02:37;96969.75;;;9.55;100.00
24306;BME280;12423;48.768;8.850;2022-12-24T10:04:38;96970.97;;;9.62;100.00
24306;BME280;12423;48.768;8.850;2022-12-24T10:06:53;96968.28;;;9.62;100.00
24306;BME280;12423;48.768;8.850;2022-12-24T10:11:20;96969.97;;;9.63;100.00
24306;BME280;12423;48.768;8.850;2022-12-24T10:13:41;96981.16;;;9.78;100.00
24306;BME280;12423;48.768;8.850;2022-12-24T10:15:55;96978.50;;;9.78;100.00
24306;BME280;12423;48.768;8.850;2022-12-24T10:20:29;96982.69;;;9.92;100.00
24306;BME280;12423;48.768;8.850;2022-12-24T10:25:24;96995.06;;;10.14;100.00
24306;BME280;12423;48.768;8.850;2022-12-24T10:27:33;96996.22;;;10.21;100.00
24306;BME280;12423;48.768;8.850;2022-12-24T10:29:43;97008.00;;;10.19;100.00
24306;BME280;12423;48.768;8.850;2022-12-24T10:31:52;97004.91;;;10.13;100.00
24306;BME280;12423;48.768;8.850;2022-12-24T10:33:59;97016.91;;;10.08;100.00
24306;BME280;12423;48.768;8.850;2022-12-24T10:36:01;97012.97;;;10.02;100.00
24306;BME280;12423;48.768;8.850;2022-12-24T10:38:03;96997.97;;;10.11;100.00
24306;BME280;12423;48.768;8.850;2022-12-24T10:40:04;96997.59;;;10.15;100.00
24306;BME280;12423;48.768;8.850;2022-12-24T10:42:06;96996.81;;;10.25;100.00
24306;BME280;12423;48.768;8.850;2022-12-24T10:44:12;96999.03;;;10.20;100.00
24306;BME280;12423;48.768;8.850;2022-12-24T10:46:20;96997.75;;;10.35;100.00
24306;BME280;12423;48.768;8.850;2022-12-24T10:48:28;97000.88;;;10.40;100.00
24306;BME280;12423;48.768;8.850;2022-12-24T10:50:33;97005.00;;;10.54;100.00
24306;BME280;12423;48.768;8.850;2022-12-24T10:52:38;97001.84;;;10.70;100.00
24306;BME280;12423;48.768;8.850;2022-12-24T10:57:23;96994.28;;;10.75;100.00
24306;BME280;12423;48.768;8.850;2022-12-24T10:59:33;96997.25;;;10.82;100.00
24306;BME280;12423;48.768;8.850;2022-12-24T11:01:45;96992.91;;;10.81;100.00
24306;BME280;12423;48.768;8.850;2022-12-24T11:03:59;96997.91;;;10.64;100.00
24306;BME280;12423;48.768;8.850;2022-12-24T11:06:13;96998.22;;;10.71;100.00
24306;BME280;12423;48.768;8.850;2022-12-24T11:08:16;96999.88;;;10.72;100.00
24306;BME280;12423;48.768;8.850;2022-12-24T11:10:23;97005.50;;;10.69;100.00
24306;BME280;12423;48.768;8.850;2022-12-24T11:12:37;96995.28;;;10.74;100.00
24306;BME280;12423;48.768;8.850;2022-12-24T11:14:39;96999.44;;;10.67;100.00
24306;BME280;12423;48.768;8.850;2022-12-24T11:16:48;97000.63;;;10.74;100.00
24306;BME280;12423;48.768;8.850;2022-12-24T11:18:53;97004.97;;;10.75;100.00
24306;BME280;12423;48.768;8.850;2022-12-24T11:20:54;97005.97;;;10.74;100.00